sensor_id;sensor_type;location;lat;lon;timestamp;P1;durP1;ratioP1;P2;durP2;ratioP2
16973;SDS011;8603;46.944;7.412;2022-11-20T00:00:46;4.13;;;2.10;;
16973;SDS011;8603;46.944;7.412;2022-11-20T00:03:12;2.43;;;1.70;;
16973;SDS011;8603;46.944;7.412;2022-11-20T00:05:37;3.97;;;2.20;;
16973;SDS011;8603;46.944;7.412;2022-11-20T00:08:03;3.97;;;1.93;;
16973;SDS011;8603;46.944;7.412;2022-11-20T00:10:29;2.90;;;1.93;;
16973;SDS011;8603;46.944;7.412;2022-11-20T00:12:54;3.87;;;2.17;;
16973;SDS011;8603;46.944;7.412;2022-11-20T00:15:20;4.53;;;2.30;;
16973;SDS011;8603;46.944;7.412;2022-11-20T00:17:46;35.97;;;10.83;;
16973;SDS011;8603;46.944;7.412;2022-11-20T00:20:11;63.33;;;16.23;;
16973;SDS011;8603;46.944;7.412;2022-11-20T00:22:37;37.67;;;9.93;;
16973;SDS011;8603;46.944;7.412;2022-11-20T00:25:03;16.03;;;5.90;;
16973;SDS011;8603;46.944;7.412;2022-11-20T00:27:29;8.50;;;3.60;;
16973;SDS011;8603;46.944;7.412;2022-11-20T00:29:55;13.53;;;5.10;;
16973;SDS011;8603;46.944;7.412;2022-11-20T00:32:20;238.87;;;54.90;;
16973;SDS011;8603;46.944;7.412;2022-11-20T00:34:46;92.60;;;29.13;;
16973;SDS011;8603;46.944;7.412;2022-11-20T00:37:11;51.53;;;15.63;;
16973;SDS011;8603;46.944;7.412;2022-11-20T00:39:37;40.80;;;12.30;;
16973;SDS011;8603;46.944;7.412;2022-11-20T00:42:03;12.90;;;6.20;;
16973;SDS011;8603;46.944;7.412;2022-11-20T00:44:28;12.20;;;6.20;;
16973;SDS011;8603;46.944;7.412;2022-11-20T00:46:54;10.10;;;4.73;;
16973;SDS011;8603;46.944;7.412;2022-11-20T00:49:19;21.33;;;8.93;;
16973;SDS011;8603;46.944;7.412;2022-11-20T00:51:45;28.97;;;10.10;;
16973;SDS011;8603;46.944;7.412;2022-11-20T00:54:10;47.97;;;17.10;;
16973;SDS011;8603;46.944;7.412;2022-11-20T00:56:36;39.40;;;15.93;;
16973;SDS011;8603;46.944;7.412;2022-11-20T00:59:01;37.40;;;14.47;;
16973;SDS011;8603;46.944;7.412;2022-11-20T01:01:27;42.87;;;15.63;;
16973;SDS011;8603;46.944;7.412;2022-11-20T01:03:55;39.10;;;13.83;;
16973;SDS011;8603;46.944;7.412;2022-11-20T01:08:49;35.37;;;12.83;;
16973;SDS011;8603;46.944;7.412;2022-11-20T01:11:19;42.63;;;17.03;;
16973;SDS011;8603;46.944;7.412;2022-11-20T01:13:47;41.43;;;16.47;;
16973;SDS011;8603;46.944;7.412;2022-11-20T01:18:42;29.30;;;12.23;;
16973;SDS011;8603;46.944;7.412;2022-11-20T01:21:10;24.03;;;11.07;;
16973;SDS011;8603;46.944;7.412;2022-11-20T01:23:38;48.07;;;15.13;;
16973;SDS011;8603;46.944;7.412;2022-11-20T01:26:06;31.17;;;11.90;;
16973;SDS011;8603;46.944;7.412;2022-11-20T01:28:34;17.20;;;7.30;;
16973;SDS011;8603;46.944;7.412;2022-11-20T01:31:00;15.93;;;7.10;;
16973;SDS011;8603;46.944;7.412;2022-11-20T01:33:34;14.40;;;6.70;;
16973;SDS011;8603;46.944;7.412;2022-11-20T01:36:04;8.80;;;5.37;;
16973;SDS011;8603;46.944;7.412;2022-11-20T01:38:31;7.73;;;4.50;;
16973;SDS011;8603;46.944;7.412;2022-11-20T01:40:56;5.77;;;4.47;;
16973;SDS011;8603;46.944;7.412;2022-11-20T01:43:22;6.20;;;3.97;;
16973;SDS011;8603;46.944;7.412;2022-11-20T01:46:02;8.67;;;4.77;;
16973;SDS011;8603;46.944;7.412;2022-11-20T01:48:39;7.43;;;4.27;;
16973;SDS011;8603;46.944;7.412;2022-11-20T01:51:07;12.27;;;5.30;;
16973;SDS011;8603;46.944;7.412;2022-11-20T01:53:40;6.83;;;4.30;;
16973;SDS011;8603;46.944;7.412;2022-11-20T01:56:07;10.27;;;5.10;;
16973;SDS011;8603;46.944;7.412;2022-11-20T01:58:37;8.33;;;4.30;;
16973;SDS011;8603;46.944;7.412;2022-11-20T02:01:06;6.53;;;4.20;;
16973;SDS011;8603;46.944;7.412;2022-11-20T02:03:32;6.77;;;4.33;;
16973;SDS011;8603;46.944;7.412;2022-11-20T02:06:16;6.57;;;4.27;;
16973;SDS011;8603;46.944;7.412;2022-11-20T02:08:49;6.13;;;4.30;;
16973;SDS011;8603;46.944;7.412;2022-11-20T02:11:16;5.90;;;4.43;;
16973;SDS011;8603;46.944;7.412;2022-11-20T02:13:41;4.67;;;3.77;;
16973;SDS011;8603;46.944;7.412;2022-11-20T02:18:54;5.63;;;3.67;;
16973;SDS011;8603;46.944;7.412;2022-11-20T02:21:33;7.33;;;4.40;;
16973;SDS011;8603;46.944;7.412;2022-11-20T02:26:50;6.67;;;4.50;;
16973;SDS011;8603;46.944;7.412;2022-11-20T02:29:26;9.43;;;6.10;;
16973;SDS011;8603;46.944;7.412;2022-11-20T02:31:57;9.60;;;5.20;;
16973;SDS011;8603;46.944;7.412;2022-11-20T02:34:26;9.53;;;5.97;;
16973;SDS011;8603;46.944;7.412;2022-11-20T02:36:51;9.00;;;5.67;;
16973;SDS011;8603;46.944;7.412;2022-11-20T02:39:18;8.63;;;5.10;;
16973;SDS011;8603;46.944;7.412;2022-11-20T02:41:45;6.80;;;4.13;;
16973;SDS011;8603;46.944;7.412;2022-11-20T02:44:11;6.90;;;3.97;;
16973;SDS011;8603;46.944;7.412;2022-11-20T02:46:37;4.30;;;3.40;;
16973;SDS011;8603;46.944;7.412;2022-11-20T02:49:02;5.77;;;3.73;;
16973;SDS011;8603;46.944;7.412;2022-11-20T02:51:29;3.83;;;3.33;;
16973;SDS011;8603;46.944;7.412;2022-11-20T02:53:55;6.87;;;3.80;;
16973;SDS011;8603;46.944;7.412;2022-11-20T02:56:20;8.33;;;3.70;;
16973;SDS011;8603;46.944;7.412;2022-11-20T02:58:46;4.67;;;3.77;;
16973;SDS011;8603;46.944;7.412;2022-11-20T03:01:12;5.03;;;3.70;;
16973;SDS011;8603;46.944;7.412;2022-11-20T03:03:38;6.53;;;3.60;;
16973;SDS011;8603;46.944;7.412;2022-11-20T03:06:03;5.70;;;3.70;;
16973;SDS011;8603;46.944;7.412;2022-11-20T03:08:29;6.57;;;3.80;;
16973;SDS011;8603;46.944;7.412;2022-11-20T03:10:55;5.30;;;3.87;;
16973;SDS011;8603;46.944;7.412;2022-11-20T03:13:20;6.10;;;4.00;;
16973;SDS011;8603;46.944;7.412;2022-11-20T03:15:46;5.97;;;3.80;;
16973;SDS011;8603;46.944;7.412;2022-11-20T03:18:11;4.20;;;3.30;;
16973;SDS011;8603;46.944;7.412;2022-11-20T03:20:38;7.07;;;3.63;;
16973;SDS011;8603;46.944;7.412;2022-11-20T03:23:04;5.00;;;3.70;;
16973;SDS011;8603;46.944;7.412;2022-11-20T03:25:29;5.40;;;3.90;;
16973;SDS011;8603;46.944;7.412;2022-11-20T03:27:55;4.97;;;3.93;;
16973;SDS011;8603;46.944;7.412;2022-11-20T03:30:21;5.30;;;3.60;;
16973;SDS011;8603;46.944;7.412;2022-11-20T03:32:47;7.07;;;3.87;;
16973;SDS011;8603;46.944;7.412;2022-11-20T03:35:12;5.77;;;3.93;;
16973;SDS011;8603;46.944;7.412;2022-11-20T03:37:38;7.00;;;4.70;;
16973;SDS011;8603;46.944;7.412;2022-11-20T03:40:04;8.43;;;4.30;;
16973;SDS011;8603;46.944;7.412;2022-11-20T03:42:30;6.27;;;4.40;;
16973;SDS011;8603;46.944;7.412;2022-11-20T03:45:11;6.30;;;4.17;;
16973;SDS011;8603;46.944;7.412;2022-11-20T03:47:38;7.10;;;3.47;;
16973;SDS011;8603;46.944;7.412;2022-11-20T03:50:03;5.20;;;3.20;;
16973;SDS011;8603;46.944;7.412;2022-11-20T03:52:29;4.47;;;3.20;;
16973;SDS011;8603;46.944;7.412;2022-11-20T03:54:55;3.67;;;3.13;;
16973;SDS011;8603;46.944;7.412;2022-11-20T03:57:20;6.30;;;3.60;;
16973;SDS011;8603;46.944;7.412;2022-11-20T03:59:46;4.97;;;3.40;;
16973;SDS011;8603;46.944;7.412;2022-11-20T04:02:11;3.77;;;2.83;;
16973;SDS011;8603;46.944;7.412;2022-11-20T04:04:37;4.53;;;3.33;;
16973;SDS011;8603;46.944;7.412;2022-11-20T04:07:03;5.87;;;3.60;;
16973;SDS011;8603;46.944;7.412;2022-11-20T04:09:29;6.20;;;3.57;;
16973;SDS011;8603;46.944;7.412;2022-11-20T04:11:54;4.63;;;3.47;;
16973;SDS011;8603;46.944;7.412;2022-11-20T04:14:20;4.00;;;3.17;;
16973;SDS011;8603;46.944;7.412;2022-11-20T04:16:45;3.83;;;3.40;;
16973;SDS011;8603;46.944;7.412;2022-11-20T04:19:12;4.07;;;3.30;;
16973;SDS011;8603;46.944;7.412;2022-11-20T04:21:40;5.57;;;3.30;;
16973;SDS011;8603;46.944;7.412;2022-11-20T04:24:06;5.63;;;4.20;;
16973;SDS011;8603;46.944;7.412;2022-11-20T04:26:32;5.60;;;4.20;;
16973;SDS011;8603;46.944;7.412;2022-11-20T04:28:58;6.93;;;4.70;;
16973;SDS011;8603;46.944;7.412;2022-11-20T04:31:25;8.63;;;4.90;;
16973;SDS011;8603;46.944;7.412;2022-11-20T04:33:52;7.53;;;4.63;;
16973;SDS011;8603;46.944;7.412;2022-11-20T04:36:18;7.43;;;4.07;;
16973;SDS011;8603;46.944;7.412;2022-11-20T04:38:46;4.40;;;3.50;;
16973;SDS011;8603;46.944;7.412;2022-11-20T04:41:16;5.10;;;3.77;;
16973;SDS011;8603;46.944;7.412;2022-11-20T04:43:47;4.97;;;3.63;;
16973;SDS011;8603;46.944;7.412;2022-11-20T04:46:17;3.37;;;3.00;;
16973;SDS011;8603;46.944;7.412;2022-11-20T04:48:44;5.07;;;3.23;;
16973;SDS011;8603;46.944;7.412;2022-11-20T04:51:10;5.83;;;3.53;;
16973;SDS011;8603;46.944;7.412;2022-11-20T04:53:35;4.63;;;3.30;;
16973;SDS011;8603;46.944;7.412;2022-11-20T04:56:02;5.33;;;3.13;;
16973;SDS011;8603;46.944;7.412;2022-11-20T04:58:29;4.37;;;3.00;;
16973;SDS011;8603;46.944;7.412;2022-11-20T05:01:05;4.50;;;3.00;;
16973;SDS011;8603;46.944;7.412;2022-11-20T05:03:32;3.83;;;3.20;;
16973;SDS011;8603;46.944;7.412;2022-11-20T05:06:01;3.83;;;2.70;;
16973;SDS011;8603;46.944;7.412;2022-11-20T05:08:28;4.60;;;3.03;;
16973;SDS011;8603;46.944;7.412;2022-11-20T05:10:59;3.30;;;3.00;;
16973;SDS011;8603;46.944;7.412;2022-11-20T05:13:26;3.70;;;3.30;;
16973;SDS011;8603;46.944;7.412;2022-11-20T05:15:52;3.43;;;3.13;;
16973;SDS011;8603;46.944;7.412;2022-11-20T05:18:17;5.83;;;3.13;;
16973;SDS011;8603;46.944;7.412;2022-11-20T05:20:43;4.53;;;3.43;;
16973;SDS011;8603;46.944;7.412;2022-11-20T05:23:08;4.80;;;2.60;;
16973;SDS011;8603;46.944;7.412;2022-11-20T05:25:34;5.47;;;3.30;;
16973;SDS011;8603;46.944;7.412;2022-11-20T05:27:59;8.47;;;3.17;;
16973;SDS011;8603;46.944;7.412;2022-11-20T05:30:25;3.97;;;3.00;;
16973;SDS011;8603;46.944;7.412;2022-11-20T05:32:51;3.57;;;2.80;;
16973;SDS011;8603;46.944;7.412;2022-11-20T05:35:16;6.27;;;3.13;;
16973;SDS011;8603;46.944;7.412;2022-11-20T05:37:42;3.07;;;2.77;;
16973;SDS011;8603;46.944;7.412;2022-11-20T05:40:07;4.50;;;3.10;;
16973;SDS011;8603;46.944;7.412;2022-11-20T05:42:34;3.63;;;3.03;;
16973;SDS011;8603;46.944;7.412;2022-11-20T05:45:01;3.73;;;2.90;;
16973;SDS011;8603;46.944;7.412;2022-11-20T05:47:32;4.13;;;3.20;;
16973;SDS011;8603;46.944;7.412;2022-11-20T05:49:59;3.53;;;3.07;;
16973;SDS011;8603;46.944;7.412;2022-11-20T05:52:24;5.63;;;3.10;;
16973;SDS011;8603;46.944;7.412;2022-11-20T05:54:53;3.83;;;2.90;;
16973;SDS011;8603;46.944;7.412;2022-11-20T05:57:19;3.70;;;2.93;;
16973;SDS011;8603;46.944;7.412;2022-11-20T05:59:44;5.53;;;3.00;;
16973;SDS011;8603;46.944;7.412;2022-11-20T06:02:10;4.70;;;3.10;;
16973;SDS011;8603;46.944;7.412;2022-11-20T06:04:36;3.50;;;2.80;;
16973;SDS011;8603;46.944;7.412;2022-11-20T06:07:01;3.53;;;2.97;;
16973;SDS011;8603;46.944;7.412;2022-11-20T06:09:27;3.43;;;2.83;;
16973;SDS011;8603;46.944;7.412;2022-11-20T06:11:52;3.47;;;2.97;;
16973;SDS011;8603;46.944;7.412;2022-11-20T06:14:18;5.07;;;3.17;;
16973;SDS011;8603;46.944;7.412;2022-11-20T06:16:44;3.77;;;2.87;;
16973;SDS011;8603;46.944;7.412;2022-11-20T06:19:09;3.50;;;2.80;;
16973;SDS011;8603;46.944;7.412;2022-11-20T06:21:35;4.00;;;2.67;;
16973;SDS011;8603;46.944;7.412;2022-11-20T06:24:00;3.77;;;2.73;;
16973;SDS011;8603;46.944;7.412;2022-11-20T06:26:26;3.57;;;2.60;;
16973;SDS011;8603;46.944;7.412;2022-11-20T06:28:53;3.47;;;2.50;;
16973;SDS011;8603;46.944;7.412;2022-11-20T06:31:20;3.87;;;3.23;;
16973;SDS011;8603;46.944;7.412;2022-11-20T06:33:47;3.57;;;2.40;;
16973;SDS011;8603;46.944;7.412;2022-11-20T06:36:14;3.00;;;2.57;;
16973;SDS011;8603;46.944;7.412;2022-11-20T06:38:40;4.90;;;2.70;;
16973;SDS011;8603;46.944;7.412;2022-11-20T06:41:08;4.40;;;2.90;;
16973;SDS011;8603;46.944;7.412;2022-11-20T06:43:36;3.03;;;2.67;;
16973;SDS011;8603;46.944;7.412;2022-11-20T06:46:02;6.50;;;2.47;;
16973;SDS011;8603;46.944;7.412;2022-11-20T06:48:28;5.33;;;3.00;;
16973;SDS011;8603;46.944;7.412;2022-11-20T06:50:54;3.13;;;2.67;;
16973;SDS011;8603;46.944;7.412;2022-11-20T06:53:21;3.33;;;2.60;;
16973;SDS011;8603;46.944;7.412;2022-11-20T06:55:47;3.03;;;2.73;;
16973;SDS011;8603;46.944;7.412;2022-11-20T06:58:13;5.50;;;3.03;;
16973;SDS011;8603;46.944;7.412;2022-11-20T07:00:39;3.20;;;2.67;;
16973;SDS011;8603;46.944;7.412;2022-11-20T07:03:05;3.20;;;2.60;;
16973;SDS011;8603;46.944;7.412;2022-11-20T07:05:32;5.00;;;2.70;;
16973;SDS011;8603;46.944;7.412;2022-11-20T07:07:58;4.47;;;2.70;;
16973;SDS011;8603;46.944;7.412;2022-11-20T07:10:24;20.50;;;12.73;;
16973;SDS011;8603;46.944;7.412;2022-11-20T07:12:51;18.50;;;13.83;;
16973;SDS011;8603;46.944;7.412;2022-11-20T07:15:18;14.27;;;10.17;;
16973;SDS011;8603;46.944;7.412;2022-11-20T07:17:44;10.03;;;5.80;;
16973;SDS011;8603;46.944;7.412;2022-11-20T07:20:10;5.90;;;4.47;;
16973;SDS011;8603;46.944;7.412;2022-11-20T07:22:36;4.17;;;3.57;;
16973;SDS011;8603;46.944;7.412;2022-11-20T07:25:02;5.90;;;4.70;;
16973;SDS011;8603;46.944;7.412;2022-11-20T07:27:28;5.10;;;4.27;;
16973;SDS011;8603;46.944;7.412;2022-11-20T07:29:54;3.87;;;3.13;;
16973;SDS011;8603;46.944;7.412;2022-11-20T07:32:20;4.70;;;2.67;;
16973;SDS011;8603;46.944;7.412;2022-11-20T07:34:46;4.00;;;3.43;;
16973;SDS011;8603;46.944;7.412;2022-11-20T07:37:12;3.20;;;2.90;;
16973;SDS011;8603;46.944;7.412;2022-11-20T07:39:38;3.37;;;2.97;;
16973;SDS011;8603;46.944;7.412;2022-11-20T07:42:04;5.20;;;2.97;;
16973;SDS011;8603;46.944;7.412;2022-11-20T07:44:31;3.47;;;3.10;;
16973;SDS011;8603;46.944;7.412;2022-11-20T07:46:57;2.13;;;2.00;;
16973;SDS011;8603;46.944;7.412;2022-11-20T07:49:23;2.40;;;2.20;;
16973;SDS011;8603;46.944;7.412;2022-11-20T07:51:51;2.63;;;2.43;;
16973;SDS011;8603;46.944;7.412;2022-11-20T07:54:20;3.17;;;2.00;;
16973;SDS011;8603;46.944;7.412;2022-11-20T07:56:47;2.87;;;2.00;;
16973;SDS011;8603;46.944;7.412;2022-11-20T07:59:14;1.73;;;1.57;;
16973;SDS011;8603;46.944;7.412;2022-11-20T08:01:40;1.83;;;1.63;;
16973;SDS011;8603;46.944;7.412;2022-11-20T08:04:06;2.40;;;1.80;;
16973;SDS011;8603;46.944;7.412;2022-11-20T08:06:32;3.07;;;1.77;;
16973;SDS011;8603;46.944;7.412;2022-11-20T08:08:58;2.67;;;1.53;;
16973;SDS011;8603;46.944;7.412;2022-11-20T08:11:24;1.40;;;1.30;;
16973;SDS011;8603;46.944;7.412;2022-11-20T08:14:08;3.53;;;2.00;;
16973;SDS011;8603;46.944;7.412;2022-11-20T08:16:37;4.93;;;2.77;;
16973;SDS011;8603;46.944;7.412;2022-11-20T08:19:03;3.60;;;2.47;;
16973;SDS011;8603;46.944;7.412;2022-11-20T08:21:30;3.33;;;2.17;;
16973;SDS011;8603;46.944;7.412;2022-11-20T08:23:56;3.93;;;2.27;;
16973;SDS011;8603;46.944;7.412;2022-11-20T08:26:23;3.10;;;2.07;;
16973;SDS011;8603;46.944;7.412;2022-11-20T08:28:49;1.60;;;1.50;;
16973;SDS011;8603;46.944;7.412;2022-11-20T08:31:19;3.23;;;2.53;;
16973;SDS011;8603;46.944;7.412;2022-11-20T08:33:45;3.87;;;2.53;;
16973;SDS011;8603;46.944;7.412;2022-11-20T08:36:10;1.80;;;1.70;;
16973;SDS011;8603;46.944;7.412;2022-11-20T08:38:36;2.40;;;1.73;;
16973;SDS011;8603;46.944;7.412;2022-11-20T08:41:02;3.20;;;1.97;;
16973;SDS011;8603;46.944;7.412;2022-11-20T08:43:47;2.23;;;1.70;;
16973;SDS011;8603;46.944;7.412;2022-11-20T08:46:13;1.97;;;1.60;;
16973;SDS011;8603;46.944;7.412;2022-11-20T08:48:39;1.63;;;1.53;;
16973;SDS011;8603;46.944;7.412;2022-11-20T08:51:05;1.90;;;1.73;;
16973;SDS011;8603;46.944;7.412;2022-11-20T08:53:30;2.50;;;1.40;;
16973;SDS011;8603;46.944;7.412;2022-11-20T08:55:56;3.63;;;1.50;;
16973;SDS011;8603;46.944;7.412;2022-11-20T08:58:22;1.63;;;1.40;;
16973;SDS011;8603;46.944;7.412;2022-11-20T09:00:48;1.83;;;1.43;;
16973;SDS011;8603;46.944;7.412;2022-11-20T09:03:13;2.30;;;1.53;;
16973;SDS011;8603;46.944;7.412;2022-11-20T09:05:39;1.87;;;1.60;;
16973;SDS011;8603;46.944;7.412;2022-11-20T09:08:05;2.43;;;1.50;;
16973;SDS011;8603;46.944;7.412;2022-11-20T09:10:30;1.67;;;1.47;;
16973;SDS011;8603;46.944;7.412;2022-11-20T09:12:57;1.53;;;1.30;;
16973;SDS011;8603;46.944;7.412;2022-11-20T09:15:23;1.40;;;1.30;;
16973;SDS011;8603;46.944;7.412;2022-11-20T09:17:56;2.67;;;1.50;;
16973;SDS011;8603;46.944;7.412;2022-11-20T09:20:23;1.63;;;1.30;;
16973;SDS011;8603;46.944;7.412;2022-11-20T09:22:50;2.10;;;1.50;;
16973;SDS011;8603;46.944;7.412;2022-11-20T09:25:16;2.90;;;1.40;;
16973;SDS011;8603;46.944;7.412;2022-11-20T09:27:42;2.10;;;1.90;;
16973;SDS011;8603;46.944;7.412;2022-11-20T09:30:09;2.07;;;1.60;;
16973;SDS011;8603;46.944;7.412;2022-11-20T09:32:35;3.73;;;1.70;;
16973;SDS011;8603;46.944;7.412;2022-11-20T09:35:01;2.07;;;1.70;;
16973;SDS011;8603;46.944;7.412;2022-11-20T09:37:27;1.47;;;1.37;;
16973;SDS011;8603;46.944;7.412;2022-11-20T09:39:52;4.43;;;1.87;;
16973;SDS011;8603;46.944;7.412;2022-11-20T09:50:52;1.30;;;1.20;;
16973;SDS011;8603;46.944;7.412;2022-11-20T09:56:10;3.13;;;1.83;;
16973;SDS011;8603;46.944;7.412;2022-11-20T09:58:47;2.30;;;1.60;;
16973;SDS011;8603;46.944;7.412;2022-11-20T10:01:16;2.73;;;1.47;;
16973;SDS011;8603;46.944;7.412;2022-11-20T10:06:28;1.87;;;1.40;;
16973;SDS011;8603;46.944;7.412;2022-11-20T10:12:00;2.30;;;1.10;;
16973;SDS011;8603;46.944;7.412;2022-11-20T10:14:38;1.83;;;1.50;;
16973;SDS011;8603;46.944;7.412;2022-11-20T10:25:50;1.70;;;1.30;;
16973;SDS011;8603;46.944;7.412;2022-11-20T10:28:25;1.60;;;1.40;;
16973;SDS011;8603;46.944;7.412;2022-11-20T10:31:17;1.77;;;1.47;;
16973;SDS011;8603;46.944;7.412;2022-11-20T10:33:58;2.47;;;1.70;;
16973;SDS011;8603;46.944;7.412;2022-11-20T10:36:33;1.30;;;1.20;;
16973;SDS011;8603;46.944;7.412;2022-11-20T10:39:16;2.00;;;1.73;;
16973;SDS011;8603;46.944;7.412;2022-11-20T10:41:50;2.63;;;1.53;;
16973;SDS011;8603;46.944;7.412;2022-11-20T10:44:22;1.50;;;1.40;;
16973;SDS011;8603;46.944;7.412;2022-11-20T10:47:12;2.30;;;1.60;;
16973;SDS011;8603;46.944;7.412;2022-11-20T10:49:39;5.63;;;1.87;;
16973;SDS011;8603;46.944;7.412;2022-11-20T10:52:10;3.00;;;1.60;;
16973;SDS011;8603;46.944;7.412;2022-11-20T11:00:37;1.30;;;1.20;;
16973;SDS011;8603;46.944;7.412;2022-11-20T11:03:13;1.40;;;1.30;;
16973;SDS011;8603;46.944;7.412;2022-11-20T11:05:53;1.30;;;1.20;;
16973;SDS011;8603;46.944;7.412;2022-11-20T11:08:24;1.63;;;1.43;;
16973;SDS011;8603;46.944;7.412;2022-11-20T11:10:57;1.43;;;1.33;;
16973;SDS011;8603;46.944;7.412;2022-11-20T11:13:29;1.20;;;1.10;;
16973;SDS011;8603;46.944;7.412;2022-11-20T11:15:55;1.03;;;1.03;;
16973;SDS011;8603;46.944;7.412;2022-11-20T11:18:26;1.20;;;1.10;;
16973;SDS011;8603;46.944;7.412;2022-11-20T11:20:57;2.07;;;1.27;;
16973;SDS011;8603;46.944;7.412;2022-11-20T11:23:30;2.40;;;1.50;;
16973;SDS011;8603;46.944;7.412;2022-11-20T11:26:02;2.83;;;1.10;;
16973;SDS011;8603;46.944;7.412;2022-11-20T11:28:30;1.37;;;1.00;;
16973;SDS011;8603;46.944;7.412;2022-11-20T11:30:56;1.53;;;1.10;;
16973;SDS011;8603;46.944;7.412;2022-11-20T11:33:29;1.13;;;1.03;;
16973;SDS011;8603;46.944;7.412;2022-11-20T11:36:00;2.43;;;1.37;;
16973;SDS011;8603;46.944;7.412;2022-11-20T11:38:29;4.90;;;3.10;;
16973;SDS011;8603;46.944;7.412;2022-11-20T11:41:00;1.10;;;1.00;;
16973;SDS011;8603;46.944;7.412;2022-11-20T11:43:28;1.20;;;1.10;;
16973;SDS011;8603;46.944;7.412;2022-11-20T11:49:00;1.33;;;1.23;;
16973;SDS011;8603;46.944;7.412;2022-11-20T11:54:24;1.50;;;1.40;;
16973;SDS011;8603;46.944;7.412;2022-11-20T11:56:55;1.40;;;1.30;;
16973;SDS011;8603;46.944;7.412;2022-11-20T11:59:27;1.30;;;1.20;;
16973;SDS011;8603;46.944;7.412;2022-11-20T12:02:20;1.80;;;1.30;;
16973;SDS011;8603;46.944;7.412;2022-11-20T12:04:53;1.90;;;1.70;;
16973;SDS011;8603;46.944;7.412;2022-11-20T12:07:35;1.53;;;1.40;;
16973;SDS011;8603;46.944;7.412;2022-11-20T12:10:22;3.83;;;2.20;;
16973;SDS011;8603;46.944;7.412;2022-11-20T12:13:34;1.90;;;1.67;;
16973;SDS011;8603;46.944;7.412;2022-11-20T12:16:02;3.60;;;1.43;;
16973;SDS011;8603;46.944;7.412;2022-11-20T12:18:29;2.10;;;1.53;;
16973;SDS011;8603;46.944;7.412;2022-11-20T12:53:05;0.90;;;0.90;;
16973;SDS011;8603;46.944;7.412;2022-11-20T12:55:49;1.13;;;0.80;;
16973;SDS011;8603;46.944;7.412;2022-11-20T12:58:31;1.47;;;1.07;;
16973;SDS011;8603;46.944;7.412;2022-11-20T13:04:08;1.10;;;1.00;;
16973;SDS011;8603;46.944;7.412;2022-11-20T13:06:53;1.10;;;1.00;;
16973;SDS011;8603;46.944;7.412;2022-11-20T13:09:20;1.40;;;1.17;;
16973;SDS011;8603;46.944;7.412;2022-11-20T13:11:55;1.33;;;1.10;;
16973;SDS011;8603;46.944;7.412;2022-11-20T13:16:59;1.20;;;1.10;;
16973;SDS011;8603;46.944;7.412;2022-11-20T13:19:32;1.73;;;1.00;;
16973;SDS011;8603;46.944;7.412;2022-11-20T13:21:58;1.10;;;1.10;;
16973;SDS011;8603;46.944;7.412;2022-11-20T13:24:25;1.53;;;1.00;;
16973;SDS011;8603;46.944;7.412;2022-11-20T13:29:46;1.70;;;0.97;;
16973;SDS011;8603;46.944;7.412;2022-11-20T13:32:25;1.43;;;1.00;;
16973;SDS011;8603;46.944;7.412;2022-11-20T13:35:00;1.23;;;1.13;;
16973;SDS011;8603;46.944;7.412;2022-11-20T13:40:32;1.60;;;1.20;;
16973;SDS011;8603;46.944;7.412;2022-11-20T13:42:55;1.50;;;1.30;;
16973;SDS011;8603;46.944;7.412;2022-11-20T13:45:23;1.00;;;1.00;;
16973;SDS011;8603;46.944;7.412;2022-11-20T13:47:51;4.43;;;1.60;;
16973;SDS011;8603;46.944;7.412;2022-11-20T13:50:18;2.83;;;1.50;;
16973;SDS011;8603;46.944;7.412;2022-11-20T13:53:11;1.30;;;1.20;;
16973;SDS011;8603;46.944;7.412;2022-11-20T14:00:57;1.90;;;1.30;;
16973;SDS011;8603;46.944;7.412;2022-11-20T14:03:28;1.40;;;1.27;;
16973;SDS011;8603;46.944;7.412;2022-11-20T14:05:55;1.40;;;1.30;;
16973;SDS011;8603;46.944;7.412;2022-11-20T14:08:48;1.73;;;1.43;;
16973;SDS011;8603;46.944;7.412;2022-11-20T14:16:41;1.40;;;1.30;;
16973;SDS011;8603;46.944;7.412;2022-11-20T14:19:22;1.43;;;1.33;;
16973;SDS011;8603;46.944;7.412;2022-11-20T14:22:07;1.20;;;1.10;;
16973;SDS011;8603;46.944;7.412;2022-11-20T14:24:39;1.13;;;1.03;;
16973;SDS011;8603;46.944;7.412;2022-11-20T14:27:04;1.17;;;1.07;;
16973;SDS011;8603;46.944;7.412;2022-11-20T14:29:36;1.30;;;1.20;;
16973;SDS011;8603;46.944;7.412;2022-11-20T14:32:03;1.80;;;1.43;;
16973;SDS011;8603;46.944;7.412;2022-11-20T14:34:30;1.23;;;1.20;;
16973;SDS011;8603;46.944;7.412;2022-11-20T14:36:58;1.93;;;1.30;;
16973;SDS011;8603;46.944;7.412;2022-11-20T14:41:59;1.00;;;1.00;;
16973;SDS011;8603;46.944;7.412;2022-11-20T14:44:34;1.83;;;1.20;;
16973;SDS011;8603;46.944;7.412;2022-11-20T14:47:01;1.40;;;1.20;;
16973;SDS011;8603;46.944;7.412;2022-11-20T14:49:29;1.50;;;1.17;;
16973;SDS011;8603;46.944;7.412;2022-11-20T14:52:00;1.33;;;1.17;;
16973;SDS011;8603;46.944;7.412;2022-11-20T14:54:48;1.47;;;1.10;;
16973;SDS011;8603;46.944;7.412;2022-11-20T14:57:35;2.37;;;1.13;;
16973;SDS011;8603;46.944;7.412;2022-11-20T15:02:41;1.33;;;1.10;;
16973;SDS011;8603;46.944;7.412;2022-11-20T15:05:07;1.00;;;1.00;;
16973;SDS011;8603;46.944;7.412;2022-11-20T15:07:35;1.30;;;1.20;;
16973;SDS011;8603;46.944;7.412;2022-11-20T15:12:51;1.37;;;1.20;;
16973;SDS011;8603;46.944;7.412;2022-11-20T15:15:25;1.40;;;1.30;;
16973;SDS011;8603;46.944;7.412;2022-11-20T15:17:52;1.30;;;1.20;;
16973;SDS011;8603;46.944;7.412;2022-11-20T15:20:18;2.37;;;1.10;;
16973;SDS011;8603;46.944;7.412;2022-11-20T15:22:46;1.93;;;1.30;;
16973;SDS011;8603;46.944;7.412;2022-11-20T15:25:13;2.90;;;1.40;;
16973;SDS011;8603;46.944;7.412;2022-11-20T15:27:39;1.97;;;1.40;;
16973;SDS011;8603;46.944;7.412;2022-11-20T15:30:16;2.07;;;1.60;;
16973;SDS011;8603;46.944;7.412;2022-11-20T15:32:43;1.60;;;1.40;;
16973;SDS011;8603;46.944;7.412;2022-11-20T15:35:10;1.70;;;1.30;;
16973;SDS011;8603;46.944;7.412;2022-11-20T15:37:36;1.30;;;1.20;;
16973;SDS011;8603;46.944;7.412;2022-11-20T15:40:03;1.40;;;1.30;;
16973;SDS011;8603;46.944;7.412;2022-11-20T15:42:29;1.40;;;1.30;;
16973;SDS011;8603;46.944;7.412;2022-11-20T15:44:54;3.33;;;1.30;;
16973;SDS011;8603;46.944;7.412;2022-11-20T15:47:21;1.30;;;1.20;;
16973;SDS011;8603;46.944;7.412;2022-11-20T15:49:54;1.57;;;1.20;;
16973;SDS011;8603;46.944;7.412;2022-11-20T15:52:19;1.30;;;1.07;;
16973;SDS011;8603;46.944;7.412;2022-11-20T15:54:45;1.53;;;1.43;;
16973;SDS011;8603;46.944;7.412;2022-11-20T15:57:11;2.93;;;1.40;;
16973;SDS011;8603;46.944;7.412;2022-11-20T15:59:37;1.93;;;1.50;;
16973;SDS011;8603;46.944;7.412;2022-11-20T16:02:12;1.67;;;1.50;;
16973;SDS011;8603;46.944;7.412;2022-11-20T16:04:39;1.37;;;1.27;;
16973;SDS011;8603;46.944;7.412;2022-11-20T16:07:04;1.93;;;1.47;;
16973;SDS011;8603;46.944;7.412;2022-11-20T16:09:30;2.00;;;1.40;;
16973;SDS011;8603;46.944;7.412;2022-11-20T16:11:56;1.53;;;1.43;;
16973;SDS011;8603;46.944;7.412;2022-11-20T16:14:24;1.80;;;1.23;;
16973;SDS011;8603;46.944;7.412;2022-11-20T16:17:08;1.60;;;1.37;;
16973;SDS011;8603;46.944;7.412;2022-11-20T16:19:34;1.37;;;1.20;;
16973;SDS011;8603;46.944;7.412;2022-11-20T16:22:00;1.60;;;1.50;;
16973;SDS011;8603;46.944;7.412;2022-11-20T16:24:28;1.40;;;1.20;;
16973;SDS011;8603;46.944;7.412;2022-11-20T16:26:54;1.50;;;1.40;;
16973;SDS011;8603;46.944;7.412;2022-11-20T16:29:21;1.77;;;1.67;;
16973;SDS011;8603;46.944;7.412;2022-11-20T16:31:47;2.70;;;1.57;;
16973;SDS011;8603;46.944;7.412;2022-11-20T16:34:12;2.37;;;1.70;;
16973;SDS011;8603;46.944;7.412;2022-11-20T16:36:40;2.60;;;1.70;;
16973;SDS011;8603;46.944;7.412;2022-11-20T16:39:07;2.77;;;2.20;;
16973;SDS011;8603;46.944;7.412;2022-11-20T16:41:33;10.27;;;4.70;;
16973;SDS011;8603;46.944;7.412;2022-11-20T16:44:00;6.20;;;3.40;;
16973;SDS011;8603;46.944;7.412;2022-11-20T16:46:27;3.67;;;2.30;;
16973;SDS011;8603;46.944;7.412;2022-11-20T16:48:58;7.17;;;3.20;;
16973;SDS011;8603;46.944;7.412;2022-11-20T16:51:25;7.93;;;4.03;;
16973;SDS011;8603;46.944;7.412;2022-11-20T16:53:52;4.27;;;2.70;;
16973;SDS011;8603;46.944;7.412;2022-11-20T16:56:21;5.40;;;4.60;;
16973;SDS011;8603;46.944;7.412;2022-11-20T16:58:52;4.93;;;4.33;;